Aérodrome :
LOGIN :

S'inscrire | Disclaimer

   EN    FR    IT 

 










Légende :    VFR   VFR Marginal   IFR   IFR Intensif   IFR Très Intensif
Visi : 
Plafond : 
>= 8 km
>= 3000ft
5 à 8 km
1000 à 3000 ft
1500m à 5 km
500 à 1000 ft
800 à 1500m
200 à 500 ft
< 800m
< 200 ft
Symboles :   Orages  Brouillard  Fortes neiges  Fortes précipitations  Vent > 20 kt
SIGMETs :   Divers  Orages  Givrage  Turbulence  Onde Orograph.  Cendres Volcan.






- Altitude de l'aérodrome : 464 ft
- Code IATA : EVX


LFOE - Evreux

DERNIER METAR :
  • 301930Z AUTO 20002KT CAVOK 13/11 Q1015 NOSIG

METARs EXPIRÉS :
  • 301900Z AUTO VRB02KT 9999 FEW048 SCT066 13/11 Q1015 TEMPO 24015G25KT 4000 SHRA BKN040CB
  • 301830Z AUTO 31005KT 270V340 CAVOK 14/12 Q1015 TEMPO 24015G25KT 4000 SHRA BKN040CB
  • 301800Z AUTO 30007KT 9999 FEW042 SCT068 15/12 Q1015 TEMPO 24015G25KT 4000 SHRA BKN040CB
  • 301730Z AUTO 26004KT 210V300 9999 FEW036/// BKN058/// BKN070/// ///CB 14/12 Q1015 TEMPO 24015G25KT 4000 SHRA
  • 301700Z AUTO 23006KT 9999 -RA FEW023/// SCT058/// OVC070/// ///CB 13/12 Q1015 TEMPO 28020G30KT 4000 SHRA

TAF TAF LFOE
Valide du 30 à 15h jusqu'au 01 à 15h UTC


301400Z 3015/0115 21008KT 9999 SCT033
TEMPO 3015/3020 24015G25KT 4000 SHRA BKN040CB
PROB30
TEMPO 3015/3019 28020G30KT TSRAGS
TEMPO 3023/0104 VRB03KT 4000 BR
BECMG 0108/0110 BKN030



MET'MAP, la Météo Aéronautique d'un coup d'oeil ! - Copyright ORBIFLY Décembre 2007 - Disclaimer

ORBIFLY MET'MAP TEAM :

Programmation & Développement : Alexandra Zaïnal
Sur une idée originale de : Baudouin d'Aumeries
Soutien technique & logistique : Manuel Goepfert
Assistance : Marc-Olivier Méhu




SOURCES & CREDITS :

   NOAA